sensor_id;sensor_type;location;lat;lon;timestamp;P1;durP1;ratioP1;P2;durP2;ratioP2
65053;SDS011;51639;47.828;35.038;2024-03-07T00:01:01;12.70;;;6.63;;
65053;SDS011;51639;47.828;35.038;2024-03-07T00:16:04;9.13;;;5.17;;
65053;SDS011;51639;47.828;35.038;2024-03-07T00:31:08;16.77;;;6.43;;
65053;SDS011;51639;47.828;35.038;2024-03-07T00:46:10;15.30;;;7.17;;
65053;SDS011;51639;47.828;35.038;2024-03-07T01:01:12;20.23;;;7.87;;
65053;SDS011;51639;47.828;35.038;2024-03-07T01:16:15;18.30;;;8.17;;
65053;SDS011;51639;47.828;35.038;2024-03-07T01:31:17;13.77;;;7.30;;
65053;SDS011;51639;47.828;35.038;2024-03-07T01:46:19;12.17;;;6.80;;
65053;SDS011;51639;47.828;35.038;2024-03-07T02:01:22;16.27;;;8.30;;
65053;SDS011;51639;47.828;35.038;2024-03-07T02:16:24;17.50;;;7.63;;
65053;SDS011;51639;47.828;35.038;2024-03-07T02:31:27;13.00;;;6.60;;
65053;SDS011;51639;47.828;35.038;2024-03-07T02:46:39;15.07;;;7.47;;
65053;SDS011;51639;47.828;35.038;2024-03-07T03:01:42;9.87;;;6.17;;
65053;SDS011;51639;47.828;35.038;2024-03-07T03:16:44;14.03;;;7.37;;
65053;SDS011;51639;47.828;35.038;2024-03-07T03:31:49;15.03;;;7.60;;
65053;SDS011;51639;47.828;35.038;2024-03-07T03:46:51;12.50;;;6.17;;
65053;SDS011;51639;47.828;35.038;2024-03-07T04:01:53;26.97;;;7.17;;
65053;SDS011;51639;47.828;35.038;2024-03-07T04:16:55;15.03;;;7.73;;
65053;SDS011;51639;47.828;35.038;2024-03-07T04:31:59;13.13;;;5.63;;
65053;SDS011;51639;47.828;35.038;2024-03-07T04:47:03;16.00;;;7.20;;
65053;SDS011;51639;47.828;35.038;2024-03-07T05:02:09;18.70;;;7.57;;
65053;SDS011;51639;47.828;35.038;2024-03-07T05:17:11;13.27;;;8.37;;
65053;SDS011;51639;47.828;35.038;2024-03-07T05:32:26;18.40;;;8.73;;
65053;SDS011;51639;47.828;35.038;2024-03-07T05:47:29;16.73;;;9.60;;
65053;SDS011;51639;47.828;35.038;2024-03-07T06:02:31;17.07;;;8.20;;
65053;SDS011;51639;47.828;35.038;2024-03-07T06:17:33;19.27;;;7.83;;
65053;SDS011;51639;47.828;35.038;2024-03-07T06:32:35;33.83;;;8.70;;
65053;SDS011;51639;47.828;35.038;2024-03-07T06:47:39;11.70;;;6.27;;
65053;SDS011;51639;47.828;35.038;2024-03-07T07:02:41;19.57;;;10.37;;
65053;SDS011;51639;47.828;35.038;2024-03-07T07:17:46;10.27;;;5.27;;
65053;SDS011;51639;47.828;35.038;2024-03-07T07:32:51;10.20;;;5.93;;
65053;SDS011;51639;47.828;35.038;2024-03-07T07:47:57;12.07;;;6.13;;
65053;SDS011;51639;47.828;35.038;2024-03-07T08:03:01;14.67;;;6.17;;
65053;SDS011;51639;47.828;35.038;2024-03-07T08:18:05;11.23;;;5.87;;
65053;SDS011;51639;47.828;35.038;2024-03-07T08:33:12;15.43;;;5.90;;
65053;SDS011;51639;47.828;35.038;2024-03-07T08:48:15;19.37;;;6.63;;
65053;SDS011;51639;47.828;35.038;2024-03-07T09:03:18;14.50;;;5.47;;
65053;SDS011;51639;47.828;35.038;2024-03-07T09:18:20;11.53;;;5.00;;
65053;SDS011;51639;47.828;35.038;2024-03-07T09:33:22;12.83;;;5.93;;
65053;SDS011;51639;47.828;35.038;2024-03-07T09:48:29;17.10;;;6.90;;
65053;SDS011;51639;47.828;35.038;2024-03-07T10:03:31;15.07;;;6.00;;
65053;SDS011;51639;47.828;35.038;2024-03-07T10:18:42;11.77;;;5.63;;
65053;SDS011;51639;47.828;35.038;2024-03-07T10:33:46;13.30;;;6.23;;
65053;SDS011;51639;47.828;35.038;2024-03-07T10:48:49;17.37;;;5.47;;
65053;SDS011;51639;47.828;35.038;2024-03-07T11:04:00;12.67;;;6.97;;
65053;SDS011;51639;47.828;35.038;2024-03-07T11:34:41;13.07;;;6.17;;
65053;SDS011;51639;47.828;35.038;2024-03-07T11:49:46;16.80;;;7.30;;
65053;SDS011;51639;47.828;35.038;2024-03-07T12:04:50;13.33;;;6.63;;
65053;SDS011;51639;47.828;35.038;2024-03-07T12:19:54;13.87;;;7.50;;
65053;SDS011;51639;47.828;35.038;2024-03-07T12:35:04;13.23;;;6.10;;
65053;SDS011;51639;47.828;35.038;2024-03-07T12:50:06;14.38;;;6.32;;
65053;SDS011;51639;47.828;35.038;2024-03-07T13:05:08;15.63;;;6.63;;
65053;SDS011;51639;47.828;35.038;2024-03-07T13:20:29;17.57;;;7.70;;
65053;SDS011;51639;47.828;35.038;2024-03-07T13:35:31;16.13;;;6.97;;
65053;SDS011;51639;47.828;35.038;2024-03-07T13:50:34;37.07;;;7.03;;
65053;SDS011;51639;47.828;35.038;2024-03-07T14:06:01;16.97;;;8.97;;
65053;SDS011;51639;47.828;35.038;2024-03-07T14:51:49;11.07;;;5.40;;
65053;SDS011;51639;47.828;35.038;2024-03-07T15:07:01;11.47;;;5.77;;
65053;SDS011;51639;47.828;35.038;2024-03-07T15:22:04;15.03;;;5.50;;
65053;SDS011;51639;47.828;35.038;2024-03-07T15:37:07;10.23;;;5.60;;
65053;SDS011;51639;47.828;35.038;2024-03-07T15:52:09;12.87;;;6.07;;
65053;SDS011;51639;47.828;35.038;2024-03-07T16:07:13;16.13;;;7.73;;
65053;SDS011;51639;47.828;35.038;2024-03-07T16:22:15;24.57;;;10.27;;
65053;SDS011;51639;47.828;35.038;2024-03-07T16:37:17;25.43;;;10.70;;
65053;SDS011;51639;47.828;35.038;2024-03-07T16:52:23;21.63;;;10.13;;
65053;SDS011;51639;47.828;35.038;2024-03-07T17:07:25;24.27;;;9.93;;
65053;SDS011;51639;47.828;35.038;2024-03-07T17:22:29;23.30;;;10.30;;
65053;SDS011;51639;47.828;35.038;2024-03-07T17:37:34;20.73;;;9.50;;
65053;SDS011;51639;47.828;35.038;2024-03-07T17:52:39;34.87;;;10.20;;
65053;SDS011;51639;47.828;35.038;2024-03-07T18:07:41;26.87;;;10.80;;
65053;SDS011;51639;47.828;35.038;2024-03-07T18:22:46;29.13;;;12.77;;
65053;SDS011;51639;47.828;35.038;2024-03-07T18:37:52;20.97;;;9.97;;
65053;SDS011;51639;47.828;35.038;2024-03-07T18:52:54;26.73;;;10.37;;
65053;SDS011;51639;47.828;35.038;2024-03-07T19:08:03;24.93;;;10.23;;
65053;SDS011;51639;47.828;35.038;2024-03-07T19:23:17;29.87;;;13.33;;
65053;SDS011;51639;47.828;35.038;2024-03-07T19:38:22;33.33;;;11.57;;
65053;SDS011;51639;47.828;35.038;2024-03-07T19:53:31;21.20;;;11.03;;
65053;SDS011;51639;47.828;35.038;2024-03-07T20:08:33;23.10;;;11.50;;
65053;SDS011;51639;47.828;35.038;2024-03-07T20:23:35;30.87;;;10.10;;
65053;SDS011;51639;47.828;35.038;2024-03-07T20:38:37;28.77;;;11.57;;
65053;SDS011;51639;47.828;35.038;2024-03-07T20:53:40;40.80;;;11.53;;
65053;SDS011;51639;47.828;35.038;2024-03-07T21:08:48;44.57;;;16.57;;
65053;SDS011;51639;47.828;35.038;2024-03-07T21:23:51;30.50;;;13.73;;
65053;SDS011;51639;47.828;35.038;2024-03-07T21:38:54;35.53;;;12.83;;
65053;SDS011;51639;47.828;35.038;2024-03-07T21:53:56;31.03;;;13.73;;
65053;SDS011;51639;47.828;35.038;2024-03-07T22:08:59;38.03;;;13.47;;
65053;SDS011;51639;47.828;35.038;2024-03-07T22:24:03;29.40;;;12.70;;
65053;SDS011;51639;47.828;35.038;2024-03-07T22:39:07;31.67;;;13.30;;
65053;SDS011;51639;47.828;35.038;2024-03-07T22:54:14;27.53;;;13.10;;
65053;SDS011;51639;47.828;35.038;2024-03-07T23:09:16;32.93;;;14.10;;
65053;SDS011;51639;47.828;35.038;2024-03-07T23:24:18;36.50;;;14.37;;
65053;SDS011;51639;47.828;35.038;2024-03-07T23:39:20;27.93;;;13.83;;
65053;SDS011;51639;47.828;35.038;2024-03-07T23:54:23;30.50;;;12.30;;
